sensor_id;sensor_type;location;lat;lon;timestamp;P1;durP1;ratioP1;P2;durP2;ratioP2
84293;SDS011;74463;51.182;3.210;2024-03-02T00:00:51;2.42;;;1.63;;
84293;SDS011;74463;51.182;3.210;2024-03-02T00:03:18;2.42;;;1.60;;
84293;SDS011;74463;51.182;3.210;2024-03-02T00:05:51;4.03;;;1.85;;
84293;SDS011;74463;51.182;3.210;2024-03-02T00:08:21;2.47;;;1.80;;
84293;SDS011;74463;51.182;3.210;2024-03-02T00:10:51;4.60;;;1.63;;
84293;SDS011;74463;51.182;3.210;2024-03-02T00:13:23;5.13;;;1.92;;
84293;SDS011;74463;51.182;3.210;2024-03-02T00:15:51;4.63;;;2.00;;
84293;SDS011;74463;51.182;3.210;2024-03-02T00:18:20;3.80;;;1.70;;
84293;SDS011;74463;51.182;3.210;2024-03-02T00:20:55;2.35;;;1.73;;
84293;SDS011;74463;51.182;3.210;2024-03-02T00:23:23;4.30;;;2.10;;
84293;SDS011;74463;51.182;3.210;2024-03-02T00:25:54;3.05;;;1.90;;
84293;SDS011;74463;51.182;3.210;2024-03-02T00:28:22;3.22;;;1.90;;
84293;SDS011;74463;51.182;3.210;2024-03-02T00:30:55;4.05;;;2.10;;
84293;SDS011;74463;51.182;3.210;2024-03-02T00:33:24;2.53;;;1.98;;
84293;SDS011;74463;51.182;3.210;2024-03-02T00:35:55;3.95;;;1.75;;
84293;SDS011;74463;51.182;3.210;2024-03-02T00:38:23;3.83;;;2.05;;
84293;SDS011;74463;51.182;3.210;2024-03-02T00:40:50;2.83;;;1.88;;
84293;SDS011;74463;51.182;3.210;2024-03-02T00:43:26;3.10;;;2.28;;
84293;SDS011;74463;51.182;3.210;2024-03-02T00:46:19;2.90;;;2.03;;
84293;SDS011;74463;51.182;3.210;2024-03-02T00:48:56;3.47;;;1.70;;
84293;SDS011;74463;51.182;3.210;2024-03-02T00:51:27;4.43;;;2.20;;
84293;SDS011;74463;51.182;3.210;2024-03-02T00:53:59;7.20;;;2.45;;
84293;SDS011;74463;51.182;3.210;2024-03-02T00:56:29;4.82;;;2.35;;
84293;SDS011;74463;51.182;3.210;2024-03-02T00:58:57;6.40;;;2.45;;
84293;SDS011;74463;51.182;3.210;2024-03-02T01:01:24;5.28;;;2.35;;
84293;SDS011;74463;51.182;3.210;2024-03-02T01:03:52;5.30;;;2.58;;
84293;SDS011;74463;51.182;3.210;2024-03-02T01:06:19;3.92;;;2.17;;
84293;SDS011;74463;51.182;3.210;2024-03-02T01:08:48;4.10;;;1.90;;
84293;SDS011;74463;51.182;3.210;2024-03-02T01:11:16;3.13;;;2.08;;
84293;SDS011;74463;51.182;3.210;2024-03-02T01:13:44;2.38;;;1.90;;
84293;SDS011;74463;51.182;3.210;2024-03-02T01:16:12;5.93;;;2.20;;
84293;SDS011;74463;51.182;3.210;2024-03-02T01:18:41;2.55;;;1.75;;
84293;SDS011;74463;51.182;3.210;2024-03-02T01:21:08;7.07;;;2.08;;
84293;SDS011;74463;51.182;3.210;2024-03-02T01:23:36;4.70;;;1.90;;
84293;SDS011;74463;51.182;3.210;2024-03-02T01:26:05;2.80;;;1.83;;
84293;SDS011;74463;51.182;3.210;2024-03-02T01:28:33;4.13;;;1.88;;
84293;SDS011;74463;51.182;3.210;2024-03-02T01:31:00;7.05;;;2.22;;
84293;SDS011;74463;51.182;3.210;2024-03-02T01:33:28;4.40;;;2.15;;
84293;SDS011;74463;51.182;3.210;2024-03-02T01:35:55;4.95;;;2.40;;
84293;SDS011;74463;51.182;3.210;2024-03-02T01:38:23;3.33;;;1.88;;
84293;SDS011;74463;51.182;3.210;2024-03-02T01:40:50;5.32;;;2.45;;
84293;SDS011;74463;51.182;3.210;2024-03-02T01:43:19;4.25;;;1.70;;
84293;SDS011;74463;51.182;3.210;2024-03-02T01:45:47;3.53;;;2.30;;
84293;SDS011;74463;51.182;3.210;2024-03-02T01:48:14;4.63;;;2.17;;
84293;SDS011;74463;51.182;3.210;2024-03-02T01:50:41;5.07;;;2.13;;
84293;SDS011;74463;51.182;3.210;2024-03-02T01:53:09;4.60;;;2.30;;
84293;SDS011;74463;51.182;3.210;2024-03-02T01:55:36;6.10;;;2.42;;
84293;SDS011;74463;51.182;3.210;2024-03-02T01:58:04;4.05;;;2.13;;
84293;SDS011;74463;51.182;3.210;2024-03-02T02:00:33;5.50;;;2.08;;
84293;SDS011;74463;51.182;3.210;2024-03-02T02:03:01;6.78;;;2.60;;
84293;SDS011;74463;51.182;3.210;2024-03-02T02:05:28;3.28;;;2.00;;
84293;SDS011;74463;51.182;3.210;2024-03-02T02:07:56;8.30;;;2.40;;
84293;SDS011;74463;51.182;3.210;2024-03-02T02:10:24;3.67;;;2.10;;
84293;SDS011;74463;51.182;3.210;2024-03-02T02:12:52;6.82;;;2.58;;
84293;SDS011;74463;51.182;3.210;2024-03-02T02:15:26;6.97;;;2.17;;
84293;SDS011;74463;51.182;3.210;2024-03-02T02:17:56;6.28;;;2.70;;
84293;SDS011;74463;51.182;3.210;2024-03-02T02:20:24;4.93;;;2.35;;
84293;SDS011;74463;51.182;3.210;2024-03-02T02:22:55;6.57;;;2.72;;
84293;SDS011;74463;51.182;3.210;2024-03-02T02:25:23;4.88;;;2.20;;
84293;SDS011;74463;51.182;3.210;2024-03-02T02:27:50;5.43;;;2.20;;
84293;SDS011;74463;51.182;3.210;2024-03-02T02:30:18;3.28;;;2.00;;
84293;SDS011;74463;51.182;3.210;2024-03-02T02:32:47;6.07;;;3.20;;
84293;SDS011;74463;51.182;3.210;2024-03-02T02:35:13;7.63;;;2.70;;
84293;SDS011;74463;51.182;3.210;2024-03-02T02:37:41;4.88;;;2.28;;
84293;SDS011;74463;51.182;3.210;2024-03-02T02:40:12;5.50;;;2.38;;
84293;SDS011;74463;51.182;3.210;2024-03-02T02:42:39;4.00;;;2.10;;
84293;SDS011;74463;51.182;3.210;2024-03-02T02:45:07;5.07;;;2.35;;
84293;SDS011;74463;51.182;3.210;2024-03-02T02:47:36;5.28;;;2.30;;
84293;SDS011;74463;51.182;3.210;2024-03-02T02:50:03;5.80;;;2.30;;
84293;SDS011;74463;51.182;3.210;2024-03-02T02:52:34;7.57;;;2.83;;
84293;SDS011;74463;51.182;3.210;2024-03-02T02:55:03;5.35;;;2.90;;
84293;SDS011;74463;51.182;3.210;2024-03-02T02:57:34;5.38;;;2.72;;
84293;SDS011;74463;51.182;3.210;2024-03-02T03:00:03;8.35;;;2.85;;
84293;SDS011;74463;51.182;3.210;2024-03-02T03:02:35;8.65;;;3.45;;
84293;SDS011;74463;51.182;3.210;2024-03-02T03:05:05;4.05;;;2.50;;
84293;SDS011;74463;51.182;3.210;2024-03-02T03:07:33;7.82;;;2.90;;
84293;SDS011;74463;51.182;3.210;2024-03-02T03:10:01;5.65;;;2.75;;
84293;SDS011;74463;51.182;3.210;2024-03-02T03:12:29;4.78;;;2.95;;
84293;SDS011;74463;51.182;3.210;2024-03-02T03:14:59;6.35;;;2.70;;
84293;SDS011;74463;51.182;3.210;2024-03-02T03:17:27;5.88;;;2.53;;
84293;SDS011;74463;51.182;3.210;2024-03-02T03:19:54;7.25;;;2.95;;
84293;SDS011;74463;51.182;3.210;2024-03-02T03:22:22;5.50;;;2.90;;
84293;SDS011;74463;51.182;3.210;2024-03-02T03:24:49;10.70;;;3.35;;
84293;SDS011;74463;51.182;3.210;2024-03-02T03:27:17;7.10;;;3.35;;
84293;SDS011;74463;51.182;3.210;2024-03-02T03:29:44;6.40;;;3.45;;
84293;SDS011;74463;51.182;3.210;2024-03-02T03:32:13;5.20;;;3.22;;
84293;SDS011;74463;51.182;3.210;2024-03-02T03:34:42;9.18;;;3.42;;
84293;SDS011;74463;51.182;3.210;2024-03-02T03:37:09;5.57;;;3.20;;
84293;SDS011;74463;51.182;3.210;2024-03-02T03:39:36;10.30;;;3.50;;
84293;SDS011;74463;51.182;3.210;2024-03-02T03:42:04;7.40;;;3.60;;
84293;SDS011;74463;51.182;3.210;2024-03-02T03:44:32;8.65;;;4.45;;
84293;SDS011;74463;51.182;3.210;2024-03-02T03:46:59;7.95;;;3.95;;
84293;SDS011;74463;51.182;3.210;2024-03-02T03:49:29;7.90;;;4.25;;
84293;SDS011;74463;51.182;3.210;2024-03-02T03:51:56;10.82;;;4.40;;
84293;SDS011;74463;51.182;3.210;2024-03-02T03:54:24;6.75;;;3.85;;
84293;SDS011;74463;51.182;3.210;2024-03-02T03:56:51;6.53;;;3.65;;
84293;SDS011;74463;51.182;3.210;2024-03-02T03:59:19;10.63;;;3.97;;
84293;SDS011;74463;51.182;3.210;2024-03-02T04:01:46;8.98;;;4.20;;
84293;SDS011;74463;51.182;3.210;2024-03-02T04:04:14;7.47;;;3.95;;
84293;SDS011;74463;51.182;3.210;2024-03-02T04:06:43;9.80;;;4.05;;
84293;SDS011;74463;51.182;3.210;2024-03-02T04:09:11;9.18;;;3.85;;
84293;SDS011;74463;51.182;3.210;2024-03-02T04:11:38;8.25;;;3.38;;
84293;SDS011;74463;51.182;3.210;2024-03-02T04:14:06;8.98;;;3.83;;
84293;SDS011;74463;51.182;3.210;2024-03-02T04:16:33;7.22;;;3.80;;
84293;SDS011;74463;51.182;3.210;2024-03-02T04:19:01;8.20;;;4.22;;
84293;SDS011;74463;51.182;3.210;2024-03-02T04:21:29;5.88;;;4.00;;
84293;SDS011;74463;51.182;3.210;2024-03-02T04:23:58;7.28;;;3.72;;
84293;SDS011;74463;51.182;3.210;2024-03-02T04:26:25;6.85;;;3.63;;
84293;SDS011;74463;51.182;3.210;2024-03-02T04:28:53;8.52;;;3.75;;
84293;SDS011;74463;51.182;3.210;2024-03-02T04:31:20;11.50;;;3.40;;
84293;SDS011;74463;51.182;3.210;2024-03-02T04:33:48;6.15;;;3.78;;
84293;SDS011;74463;51.182;3.210;2024-03-02T04:36:15;6.30;;;3.22;;
84293;SDS011;74463;51.182;3.210;2024-03-02T04:38:43;7.40;;;4.03;;
84293;SDS011;74463;51.182;3.210;2024-03-02T04:41:12;6.93;;;3.45;;
84293;SDS011;74463;51.182;3.210;2024-03-02T04:43:39;7.40;;;3.45;;
84293;SDS011;74463;51.182;3.210;2024-03-02T04:46:07;6.55;;;3.35;;
84293;SDS011;74463;51.182;3.210;2024-03-02T04:48:34;10.00;;;3.53;;
84293;SDS011;74463;51.182;3.210;2024-03-02T04:51:02;5.68;;;3.20;;
84293;SDS011;74463;51.182;3.210;2024-03-02T04:53:30;8.68;;;3.60;;
84293;SDS011;74463;51.182;3.210;2024-03-02T04:55:57;7.65;;;3.40;;
84293;SDS011;74463;51.182;3.210;2024-03-02T04:58:47;5.97;;;3.23;;
84293;SDS011;74463;51.182;3.210;2024-03-02T05:01:14;7.88;;;2.88;;
84293;SDS011;74463;51.182;3.210;2024-03-02T05:03:42;6.85;;;2.85;;
84293;SDS011;74463;51.182;3.210;2024-03-02T05:06:10;7.82;;;3.63;;
84293;SDS011;74463;51.182;3.210;2024-03-02T05:08:37;6.72;;;3.55;;
84293;SDS011;74463;51.182;3.210;2024-03-02T05:11:05;7.45;;;3.10;;
84293;SDS011;74463;51.182;3.210;2024-03-02T05:13:51;9.00;;;3.03;;
84293;SDS011;74463;51.182;3.210;2024-03-02T05:16:19;10.45;;;3.30;;
84293;SDS011;74463;51.182;3.210;2024-03-02T05:18:47;7.35;;;3.65;;
84293;SDS011;74463;51.182;3.210;2024-03-02T05:21:15;5.63;;;2.90;;
84293;SDS011;74463;51.182;3.210;2024-03-02T05:23:42;6.05;;;3.08;;
84293;SDS011;74463;51.182;3.210;2024-03-02T05:26:10;9.95;;;2.90;;
84293;SDS011;74463;51.182;3.210;2024-03-02T05:28:38;5.80;;;3.10;;
84293;SDS011;74463;51.182;3.210;2024-03-02T05:31:09;5.65;;;2.70;;
84293;SDS011;74463;51.182;3.210;2024-03-02T05:33:37;7.40;;;2.85;;
84293;SDS011;74463;51.182;3.210;2024-03-02T05:36:05;11.95;;;3.20;;
84293;SDS011;74463;51.182;3.210;2024-03-02T05:38:34;6.95;;;3.13;;
84293;SDS011;74463;51.182;3.210;2024-03-02T05:41:02;5.45;;;2.75;;
84293;SDS011;74463;51.182;3.210;2024-03-02T05:43:30;7.05;;;2.90;;
84293;SDS011;74463;51.182;3.210;2024-03-02T05:45:57;7.80;;;2.95;;
84293;SDS011;74463;51.182;3.210;2024-03-02T05:48:26;9.45;;;3.00;;
84293;SDS011;74463;51.182;3.210;2024-03-02T05:53:21;8.20;;;2.80;;
84293;SDS011;74463;51.182;3.210;2024-03-02T05:55:49;5.13;;;2.97;;
84293;SDS011;74463;51.182;3.210;2024-03-02T05:58:20;6.65;;;3.00;;
84293;SDS011;74463;51.182;3.210;2024-03-02T06:00:58;7.95;;;2.70;;
84293;SDS011;74463;51.182;3.210;2024-03-02T06:03:27;8.10;;;3.00;;
84293;SDS011;74463;51.182;3.210;2024-03-02T06:05:54;6.70;;;2.80;;
84293;SDS011;74463;51.182;3.210;2024-03-02T06:08:22;5.25;;;2.53;;
84293;SDS011;74463;51.182;3.210;2024-03-02T06:10:49;5.60;;;3.05;;
84293;SDS011;74463;51.182;3.210;2024-03-02T06:13:17;9.10;;;2.95;;
84293;SDS011;74463;51.182;3.210;2024-03-02T06:15:44;6.53;;;3.05;;
84293;SDS011;74463;51.182;3.210;2024-03-02T06:18:12;6.68;;;3.40;;
84293;SDS011;74463;51.182;3.210;2024-03-02T06:20:41;8.50;;;4.22;;
84293;SDS011;74463;51.182;3.210;2024-03-02T06:25:36;6.13;;;3.05;;
84293;SDS011;74463;51.182;3.210;2024-03-02T06:28:04;9.75;;;3.47;;
84293;SDS011;74463;51.182;3.210;2024-03-02T06:30:32;7.63;;;3.22;;
84293;SDS011;74463;51.182;3.210;2024-03-02T06:33:00;8.02;;;3.20;;
84293;SDS011;74463;51.182;3.210;2024-03-02T06:35:29;10.07;;;3.08;;
84293;SDS011;74463;51.182;3.210;2024-03-02T06:37:57;8.48;;;3.28;;
84293;SDS011;74463;51.182;3.210;2024-03-02T06:40:24;9.52;;;3.13;;
84293;SDS011;74463;51.182;3.210;2024-03-02T06:42:52;11.18;;;3.35;;
84293;SDS011;74463;51.182;3.210;2024-03-02T06:45:19;5.40;;;2.97;;
84293;SDS011;74463;51.182;3.210;2024-03-02T06:47:47;8.23;;;3.15;;
84293;SDS011;74463;51.182;3.210;2024-03-02T06:50:14;6.72;;;2.88;;
84293;SDS011;74463;51.182;3.210;2024-03-02T06:52:42;9.65;;;2.85;;
84293;SDS011;74463;51.182;3.210;2024-03-02T06:55:11;7.25;;;2.92;;
84293;SDS011;74463;51.182;3.210;2024-03-02T07:00:06;7.05;;;3.10;;
84293;SDS011;74463;51.182;3.210;2024-03-02T07:02:35;10.48;;;3.60;;
84293;SDS011;74463;51.182;3.210;2024-03-02T07:05:02;5.00;;;3.28;;
84293;SDS011;74463;51.182;3.210;2024-03-02T07:07:32;8.57;;;3.40;;
84293;SDS011;74463;51.182;3.210;2024-03-02T07:10:00;11.15;;;4.70;;
84293;SDS011;74463;51.182;3.210;2024-03-02T07:12:29;9.95;;;3.95;;
84293;SDS011;74463;51.182;3.210;2024-03-02T07:14:56;7.68;;;3.63;;
84293;SDS011;74463;51.182;3.210;2024-03-02T07:17:43;9.27;;;3.42;;
84293;SDS011;74463;51.182;3.210;2024-03-02T07:20:11;8.02;;;3.40;;
84293;SDS011;74463;51.182;3.210;2024-03-02T07:22:39;12.07;;;2.97;;
84293;SDS011;74463;51.182;3.210;2024-03-02T07:25:06;10.25;;;3.00;;
84293;SDS011;74463;51.182;3.210;2024-03-02T07:27:35;9.15;;;2.72;;
84293;SDS011;74463;51.182;3.210;2024-03-02T07:30:03;9.68;;;3.00;;
84293;SDS011;74463;51.182;3.210;2024-03-02T07:32:31;12.30;;;2.65;;
84293;SDS011;74463;51.182;3.210;2024-03-02T07:34:58;7.07;;;3.08;;
84293;SDS011;74463;51.182;3.210;2024-03-02T07:37:26;7.03;;;2.88;;
84293;SDS011;74463;51.182;3.210;2024-03-02T07:39:54;8.00;;;3.25;;
84293;SDS011;74463;51.182;3.210;2024-03-02T07:42:21;6.50;;;2.65;;
84293;SDS011;74463;51.182;3.210;2024-03-02T07:44:50;7.88;;;2.65;;
84293;SDS011;74463;51.182;3.210;2024-03-02T07:49:45;5.50;;;2.73;;
84293;SDS011;74463;51.182;3.210;2024-03-02T07:52:12;8.35;;;3.13;;
84293;SDS011;74463;51.182;3.210;2024-03-02T07:54:39;7.32;;;2.78;;
84293;SDS011;74463;51.182;3.210;2024-03-02T07:57:07;10.27;;;3.28;;
84293;SDS011;74463;51.182;3.210;2024-03-02T07:59:35;7.00;;;2.60;;
84293;SDS011;74463;51.182;3.210;2024-03-02T08:02:05;7.75;;;2.78;;
84293;SDS011;74463;51.182;3.210;2024-03-02T08:04:32;9.48;;;2.83;;
84293;SDS011;74463;51.182;3.210;2024-03-02T08:07:00;12.88;;;3.63;;
84293;SDS011;74463;51.182;3.210;2024-03-02T08:09:27;8.85;;;2.60;;
84293;SDS011;74463;51.182;3.210;2024-03-02T08:11:54;6.95;;;3.85;;
84293;SDS011;74463;51.182;3.210;2024-03-02T08:14:22;6.72;;;2.88;;
84293;SDS011;74463;51.182;3.210;2024-03-02T08:16:49;7.65;;;2.70;;
84293;SDS011;74463;51.182;3.210;2024-03-02T08:19:18;9.27;;;2.53;;
84293;SDS011;74463;51.182;3.210;2024-03-02T08:21:45;7.32;;;2.40;;
84293;SDS011;74463;51.182;3.210;2024-03-02T08:24:13;8.48;;;2.20;;
84293;SDS011;74463;51.182;3.210;2024-03-02T08:26:40;7.65;;;3.55;;
84293;SDS011;74463;51.182;3.210;2024-03-02T08:29:07;11.57;;;2.97;;
84293;SDS011;74463;51.182;3.210;2024-03-02T08:31:34;8.52;;;3.28;;
84293;SDS011;74463;51.182;3.210;2024-03-02T08:34:01;11.52;;;2.80;;
84293;SDS011;74463;51.182;3.210;2024-03-02T08:36:29;8.25;;;2.50;;
84293;SDS011;74463;51.182;3.210;2024-03-02T08:38:56;10.20;;;2.95;;
84293;SDS011;74463;51.182;3.210;2024-03-02T08:41:24;13.90;;;3.00;;
84293;SDS011;74463;51.182;3.210;2024-03-02T08:43:51;8.43;;;3.03;;
84293;SDS011;74463;51.182;3.210;2024-03-02T08:46:19;8.32;;;2.78;;
84293;SDS011;74463;51.182;3.210;2024-03-02T08:48:46;9.48;;;2.95;;
84293;SDS011;74463;51.182;3.210;2024-03-02T08:51:13;9.02;;;2.83;;
84293;SDS011;74463;51.182;3.210;2024-03-02T08:53:42;9.32;;;2.60;;
84293;SDS011;74463;51.182;3.210;2024-03-02T08:56:09;9.43;;;2.90;;
84293;SDS011;74463;51.182;3.210;2024-03-02T08:58:38;10.10;;;3.30;;
84293;SDS011;74463;51.182;3.210;2024-03-02T09:01:05;10.48;;;2.80;;
84293;SDS011;74463;51.182;3.210;2024-03-02T09:03:33;10.38;;;3.08;;
84293;SDS011;74463;51.182;3.210;2024-03-02T09:06:01;11.25;;;2.88;;
84293;SDS011;74463;51.182;3.210;2024-03-02T09:08:28;13.73;;;3.17;;
84293;SDS011;74463;51.182;3.210;2024-03-02T09:10:57;9.27;;;3.17;;
84293;SDS011;74463;51.182;3.210;2024-03-02T09:13:24;6.20;;;2.42;;
84293;SDS011;74463;51.182;3.210;2024-03-02T09:15:51;9.30;;;3.15;;
84293;SDS011;74463;51.182;3.210;2024-03-02T09:18:18;9.35;;;3.17;;
84293;SDS011;74463;51.182;3.210;2024-03-02T09:20:46;10.98;;;2.75;;
84293;SDS011;74463;51.182;3.210;2024-03-02T09:23:13;7.97;;;2.40;;
84293;SDS011;74463;51.182;3.210;2024-03-02T09:25:41;8.23;;;3.70;;
84293;SDS011;74463;51.182;3.210;2024-03-02T09:28:10;8.95;;;3.22;;
84293;SDS011;74463;51.182;3.210;2024-03-02T09:30:37;8.98;;;2.22;;
84293;SDS011;74463;51.182;3.210;2024-03-02T09:33:05;15.50;;;2.80;;
84293;SDS011;74463;51.182;3.210;2024-03-02T09:35:32;14.48;;;3.92;;
84293;SDS011;74463;51.182;3.210;2024-03-02T09:37:59;8.90;;;2.60;;
84293;SDS011;74463;51.182;3.210;2024-03-02T09:40:28;7.88;;;3.38;;
84293;SDS011;74463;51.182;3.210;2024-03-02T09:42:56;11.82;;;3.03;;
84293;SDS011;74463;51.182;3.210;2024-03-02T09:45:25;11.88;;;3.20;;
84293;SDS011;74463;51.182;3.210;2024-03-02T09:47:53;14.98;;;3.08;;
84293;SDS011;74463;51.182;3.210;2024-03-02T09:50:21;7.15;;;2.58;;
84293;SDS011;74463;51.182;3.210;2024-03-02T09:52:49;12.55;;;4.05;;
84293;SDS011;74463;51.182;3.210;2024-03-02T09:55:16;9.77;;;2.53;;
84293;SDS011;74463;51.182;3.210;2024-03-02T09:57:44;9.48;;;2.65;;
84293;SDS011;74463;51.182;3.210;2024-03-02T10:00:14;8.35;;;2.70;;
84293;SDS011;74463;51.182;3.210;2024-03-02T10:02:43;10.95;;;2.78;;
84293;SDS011;74463;51.182;3.210;2024-03-02T10:05:22;12.35;;;2.60;;
84293;SDS011;74463;51.182;3.210;2024-03-02T10:07:56;9.10;;;2.80;;
84293;SDS011;74463;51.182;3.210;2024-03-02T10:10:27;15.02;;;3.22;;
84293;SDS011;74463;51.182;3.210;2024-03-02T10:13:05;15.70;;;3.42;;
84293;SDS011;74463;51.182;3.210;2024-03-02T10:15:34;12.82;;;3.22;;
84293;SDS011;74463;51.182;3.210;2024-03-02T10:18:04;13.60;;;3.53;;
84293;SDS011;74463;51.182;3.210;2024-03-02T10:20:31;12.52;;;2.83;;
84293;SDS011;74463;51.182;3.210;2024-03-02T10:23:09;11.90;;;3.28;;
84293;SDS011;74463;51.182;3.210;2024-03-02T10:25:37;8.30;;;2.75;;
84293;SDS011;74463;51.182;3.210;2024-03-02T10:28:05;12.25;;;2.92;;
84293;SDS011;74463;51.182;3.210;2024-03-02T10:30:33;8.43;;;3.55;;
84293;SDS011;74463;51.182;3.210;2024-03-02T10:33:01;10.95;;;2.80;;
84293;SDS011;74463;51.182;3.210;2024-03-02T10:35:32;12.45;;;2.88;;
84293;SDS011;74463;51.182;3.210;2024-03-02T10:38:01;7.25;;;2.80;;
84293;SDS011;74463;51.182;3.210;2024-03-02T10:40:31;12.55;;;3.28;;
84293;SDS011;74463;51.182;3.210;2024-03-02T10:42:59;10.95;;;3.28;;
84293;SDS011;74463;51.182;3.210;2024-03-02T10:45:30;14.32;;;5.10;;
84293;SDS011;74463;51.182;3.210;2024-03-02T10:47:58;8.90;;;3.40;;
84293;SDS011;74463;51.182;3.210;2024-03-02T10:50:32;7.97;;;3.03;;
84293;SDS011;74463;51.182;3.210;2024-03-02T10:55:26;8.45;;;3.20;;
84293;SDS011;74463;51.182;3.210;2024-03-02T10:57:54;8.60;;;4.03;;
84293;SDS011;74463;51.182;3.210;2024-03-02T11:00:23;10.00;;;2.28;;
84293;SDS011;74463;51.182;3.210;2024-03-02T11:02:56;13.70;;;3.42;;
84293;SDS011;74463;51.182;3.210;2024-03-02T11:05:26;5.55;;;2.60;;
84293;SDS011;74463;51.182;3.210;2024-03-02T11:08:00;7.35;;;2.40;;
84293;SDS011;74463;51.182;3.210;2024-03-02T11:10:32;6.45;;;3.30;;
84293;SDS011;74463;51.182;3.210;2024-03-02T11:13:02;6.38;;;2.85;;
84293;SDS011;74463;51.182;3.210;2024-03-02T11:15:32;9.93;;;2.75;;
84293;SDS011;74463;51.182;3.210;2024-03-02T11:18:03;13.13;;;2.85;;
84293;SDS011;74463;51.182;3.210;2024-03-02T11:20:34;14.38;;;3.08;;
84293;SDS011;74463;51.182;3.210;2024-03-02T11:23:08;8.23;;;2.92;;
84293;SDS011;74463;51.182;3.210;2024-03-02T11:25:35;10.75;;;3.10;;
84293;SDS011;74463;51.182;3.210;2024-03-02T11:28:04;9.13;;;2.67;;
84293;SDS011;74463;51.182;3.210;2024-03-02T11:30:50;11.02;;;2.25;;
84293;SDS011;74463;51.182;3.210;2024-03-02T11:33:25;10.45;;;2.35;;
84293;SDS011;74463;51.182;3.210;2024-03-02T11:35:54;8.73;;;2.60;;
84293;SDS011;74463;51.182;3.210;2024-03-02T11:40:57;8.10;;;4.22;;
84293;SDS011;74463;51.182;3.210;2024-03-02T11:43:27;9.80;;;2.65;;
84293;SDS011;74463;51.182;3.210;2024-03-02T11:45:58;7.13;;;2.30;;
84293;SDS011;74463;51.182;3.210;2024-03-02T11:48:26;9.75;;;2.92;;
84293;SDS011;74463;51.182;3.210;2024-03-02T11:50:53;11.85;;;2.78;;
84293;SDS011;74463;51.182;3.210;2024-03-02T11:53:25;6.78;;;2.72;;
84293;SDS011;74463;51.182;3.210;2024-03-02T11:55:56;8.55;;;2.90;;
84293;SDS011;74463;51.182;3.210;2024-03-02T11:58:24;13.13;;;2.92;;
84293;SDS011;74463;51.182;3.210;2024-03-02T12:00:52;9.20;;;2.80;;
84293;SDS011;74463;51.182;3.210;2024-03-02T12:03:21;9.55;;;2.60;;
84293;SDS011;74463;51.182;3.210;2024-03-02T12:05:50;13.05;;;2.85;;
84293;SDS011;74463;51.182;3.210;2024-03-02T12:08:18;8.68;;;2.83;;
84293;SDS011;74463;51.182;3.210;2024-03-02T12:10:57;7.78;;;2.45;;
84293;SDS011;74463;51.182;3.210;2024-03-02T12:13:25;10.23;;;2.60;;
84293;SDS011;74463;51.182;3.210;2024-03-02T12:15:53;7.75;;;2.33;;
84293;SDS011;74463;51.182;3.210;2024-03-02T12:18:22;8.82;;;2.90;;
84293;SDS011;74463;51.182;3.210;2024-03-02T12:20:50;9.37;;;2.73;;
84293;SDS011;74463;51.182;3.210;2024-03-02T12:23:21;6.15;;;2.30;;
84293;SDS011;74463;51.182;3.210;2024-03-02T12:25:49;13.02;;;2.42;;
84293;SDS011;74463;51.182;3.210;2024-03-02T12:28:19;10.15;;;2.67;;
84293;SDS011;74463;51.182;3.210;2024-03-02T12:30:46;10.73;;;2.60;;
84293;SDS011;74463;51.182;3.210;2024-03-02T12:33:15;8.77;;;2.50;;
84293;SDS011;74463;51.182;3.210;2024-03-02T12:35:43;7.28;;;2.50;;
84293;SDS011;74463;51.182;3.210;2024-03-02T12:38:11;7.22;;;2.45;;
84293;SDS011;74463;51.182;3.210;2024-03-02T12:40:39;6.88;;;2.10;;
84293;SDS011;74463;51.182;3.210;2024-03-02T12:43:06;5.43;;;2.60;;
84293;SDS011;74463;51.182;3.210;2024-03-02T12:45:35;5.93;;;2.70;;
84293;SDS011;74463;51.182;3.210;2024-03-02T12:50:31;4.22;;;2.05;;
84293;SDS011;74463;51.182;3.210;2024-03-02T12:52:59;5.13;;;2.25;;
84293;SDS011;74463;51.182;3.210;2024-03-02T12:55:27;4.38;;;2.20;;
84293;SDS011;74463;51.182;3.210;2024-03-02T12:57:55;5.63;;;2.70;;
84293;SDS011;74463;51.182;3.210;2024-03-02T13:00:24;6.78;;;2.55;;
84293;SDS011;74463;51.182;3.210;2024-03-02T13:02:53;10.18;;;2.15;;
84293;SDS011;74463;51.182;3.210;2024-03-02T13:05:29;11.00;;;2.97;;
84293;SDS011;74463;51.182;3.210;2024-03-02T13:07:58;8.20;;;2.67;;
84293;SDS011;74463;51.182;3.210;2024-03-02T13:10:28;8.27;;;2.72;;
84293;SDS011;74463;51.182;3.210;2024-03-02T13:12:56;7.95;;;2.20;;
84293;SDS011;74463;51.182;3.210;2024-03-02T13:15:25;6.70;;;2.58;;
84293;SDS011;74463;51.182;3.210;2024-03-02T13:17:54;8.15;;;2.58;;
84293;SDS011;74463;51.182;3.210;2024-03-02T13:20:29;11.00;;;3.13;;
84293;SDS011;74463;51.182;3.210;2024-03-02T13:22:58;5.38;;;2.65;;
84293;SDS011;74463;51.182;3.210;2024-03-02T13:25:25;8.68;;;3.13;;
84293;SDS011;74463;51.182;3.210;2024-03-02T13:27:53;7.70;;;2.97;;
84293;SDS011;74463;51.182;3.210;2024-03-02T13:30:20;8.50;;;2.90;;
84293;SDS011;74463;51.182;3.210;2024-03-02T13:32:48;7.22;;;2.60;;
84293;SDS011;74463;51.182;3.210;2024-03-02T13:35:17;7.90;;;3.13;;
84293;SDS011;74463;51.182;3.210;2024-03-02T13:37:44;12.60;;;3.08;;
84293;SDS011;74463;51.182;3.210;2024-03-02T13:40:12;5.53;;;2.65;;
84293;SDS011;74463;51.182;3.210;2024-03-02T13:42:43;5.90;;;2.78;;
84293;SDS011;74463;51.182;3.210;2024-03-02T13:45:11;8.27;;;3.05;;
84293;SDS011;74463;51.182;3.210;2024-03-02T13:47:39;11.52;;;4.30;;
84293;SDS011;74463;51.182;3.210;2024-03-02T13:50:06;12.20;;;3.00;;
84293;SDS011;74463;51.182;3.210;2024-03-02T13:52:35;8.13;;;3.67;;
84293;SDS011;74463;51.182;3.210;2024-03-02T13:55:02;8.95;;;3.22;;
84293;SDS011;74463;51.182;3.210;2024-03-02T13:57:30;9.32;;;2.92;;
84293;SDS011;74463;51.182;3.210;2024-03-02T13:59:57;9.73;;;3.33;;
84293;SDS011;74463;51.182;3.210;2024-03-02T14:02:24;9.43;;;3.03;;
84293;SDS011;74463;51.182;3.210;2024-03-02T14:04:52;7.82;;;3.10;;
84293;SDS011;74463;51.182;3.210;2024-03-02T14:07:20;8.32;;;3.08;;
84293;SDS011;74463;51.182;3.210;2024-03-02T14:09:48;10.05;;;3.10;;
84293;SDS011;74463;51.182;3.210;2024-03-02T14:12:15;6.95;;;3.05;;
84293;SDS011;74463;51.182;3.210;2024-03-02T14:14:42;6.00;;;3.15;;
84293;SDS011;74463;51.182;3.210;2024-03-02T14:17:10;10.05;;;4.13;;
84293;SDS011;74463;51.182;3.210;2024-03-02T14:19:40;9.65;;;3.95;;
84293;SDS011;74463;51.182;3.210;2024-03-02T14:22:08;10.57;;;3.40;;
84293;SDS011;74463;51.182;3.210;2024-03-02T14:24:38;7.45;;;2.40;;
84293;SDS011;74463;51.182;3.210;2024-03-02T14:27:09;7.57;;;3.15;;
84293;SDS011;74463;51.182;3.210;2024-03-02T14:29:39;6.97;;;2.83;;
84293;SDS011;74463;51.182;3.210;2024-03-02T14:32:06;6.97;;;2.55;;
84293;SDS011;74463;51.182;3.210;2024-03-02T14:34:34;3.55;;;2.60;;
84293;SDS011;74463;51.182;3.210;2024-03-02T14:37:01;5.00;;;2.60;;
84293;SDS011;74463;51.182;3.210;2024-03-02T14:39:29;5.68;;;2.42;;
84293;SDS011;74463;51.182;3.210;2024-03-02T14:41:59;5.05;;;2.40;;
84293;SDS011;74463;51.182;3.210;2024-03-02T14:44:29;3.63;;;2.55;;
84293;SDS011;74463;51.182;3.210;2024-03-02T14:49:24;6.25;;;2.75;;
84293;SDS011;74463;51.182;3.210;2024-03-02T14:51:52;4.72;;;2.38;;
84293;SDS011;74463;51.182;3.210;2024-03-02T14:54:19;7.50;;;2.65;;
84293;SDS011;74463;51.182;3.210;2024-03-02T14:56:47;7.05;;;2.47;;
84293;SDS011;74463;51.182;3.210;2024-03-02T14:59:14;4.13;;;2.58;;
84293;SDS011;74463;51.182;3.210;2024-03-02T15:01:43;6.78;;;3.35;;
84293;SDS011;74463;51.182;3.210;2024-03-02T15:04:11;6.97;;;3.67;;
84293;SDS011;74463;51.182;3.210;2024-03-02T15:06:39;4.78;;;2.85;;
84293;SDS011;74463;51.182;3.210;2024-03-02T15:09:06;6.97;;;3.40;;
84293;SDS011;74463;51.182;3.210;2024-03-02T15:11:34;6.03;;;3.45;;
84293;SDS011;74463;51.182;3.210;2024-03-02T15:14:02;5.10;;;3.00;;